createdAt,value
2022-10-13T00:01:46.229Z,12.23
2022-10-13T00:04:12.713Z,12.23
2022-10-13T00:06:39.104Z,12.27
2022-10-13T00:09:05.490Z,12.55
2022-10-13T00:11:31.927Z,12.55
2022-10-13T00:13:59.633Z,12.43
2022-10-13T00:16:28.967Z,12.73
2022-10-13T00:18:55.470Z,11.15
2022-10-13T00:21:23.614Z,12.07
2022-10-13T00:23:50.764Z,13.00
2022-10-13T00:26:19.437Z,13.60
2022-10-13T00:28:51.312Z,13.48
2022-10-13T00:31:18.818Z,13.35
2022-10-13T00:33:45.369Z,13.93
2022-10-13T00:36:12.592Z,13.50
2022-10-13T00:38:38.971Z,13.68
2022-10-13T00:41:05.780Z,13.80
2022-10-13T00:43:50.448Z,13.48
2022-10-13T00:46:18.715Z,13.65
2022-10-13T00:48:46.702Z,13.35
2022-10-13T00:51:14.865Z,13.63
2022-10-13T00:53:41.297Z,12.85
2022-10-13T00:56:09.305Z,11.80
2022-10-13T00:58:37.484Z,12.02
2022-10-13T01:01:04.558Z,11.70
2022-10-13T01:03:31.167Z,10.77
2022-10-13T01:05:58.782Z,10.38
2022-10-13T01:08:27.056Z,10.00
2022-10-13T01:11:15.916Z,9.68
2022-10-13T01:13:45.408Z,9.80
2022-10-13T01:16:14.552Z,9.95
2022-10-13T01:18:54.820Z,8.88
2022-10-13T01:21:35.654Z,8.45
2022-10-13T01:24:10.902Z,8.60
2022-10-13T01:26:56.047Z,8.18
2022-10-13T01:29:28.620Z,8.98
2022-10-13T01:31:57.978Z,8.70
2022-10-13T01:34:32.588Z,8.88
2022-10-13T01:37:09.371Z,9.88
2022-10-13T01:40:04.887Z,8.73
2022-10-13T01:42:36.075Z,9.32
2022-10-13T01:45:04.567Z,9.55
2022-10-13T01:47:34.108Z,9.68
2022-10-13T01:50:01.377Z,9.48
2022-10-13T01:52:32.232Z,8.95
2022-10-13T01:55:04.873Z,9.77
2022-10-13T01:57:34.306Z,11.65
2022-10-13T02:00:02.186Z,14.10
2022-10-13T02:03:00.495Z,8.55
2022-10-13T02:05:49.214Z,7.38
2022-10-13T02:08:20.500Z,7.85
2022-10-13T02:10:53.626Z,8.50
2022-10-13T02:13:22.540Z,7.43
2022-10-13T02:15:54.337Z,7.60
2022-10-13T02:18:23.611Z,7.53
2022-10-13T02:20:50.753Z,7.30
2022-10-13T02:23:18.200Z,7.60
2022-10-13T02:25:44.651Z,7.70
2022-10-13T02:28:12.787Z,6.45
2022-10-13T02:30:42.359Z,8.15
2022-10-13T02:33:09.168Z,8.00
2022-10-13T02:35:36.889Z,7.88
2022-10-13T02:38:03.500Z,8.15
2022-10-13T02:40:29.926Z,7.88
2022-10-13T02:42:56.618Z,8.38
2022-10-13T02:45:23.021Z,9.52
2022-10-13T02:47:49.468Z,9.13
2022-10-13T02:50:15.865Z,9.05
2022-10-13T02:52:42.236Z,8.82
2022-10-13T02:55:08.973Z,8.52
2022-10-13T02:57:35.342Z,7.93
2022-10-13T03:00:01.754Z,8.95
2022-10-13T03:02:28.112Z,8.68
2022-10-13T03:04:54.549Z,10.20
2022-10-13T03:07:20.969Z,10.20
2022-10-13T03:09:47.476Z,10.30
2022-10-13T03:12:13.925Z,10.07
2022-10-13T03:14:40.249Z,10.25
2022-10-13T03:17:11.030Z,9.60
2022-10-13T03:19:39.569Z,10.55
2022-10-13T03:22:06.674Z,9.88
2022-10-13T03:24:33.007Z,9.48
2022-10-13T03:26:59.360Z,8.40
2022-10-13T03:29:25.763Z,8.77
2022-10-13T03:31:52.118Z,9.02
2022-10-13T03:34:20.162Z,8.85
2022-10-13T03:36:46.595Z,8.90
2022-10-13T03:39:13.365Z,7.75
2022-10-13T03:41:39.714Z,8.38
2022-10-13T03:44:07.479Z,8.05
2022-10-13T03:46:34.118Z,8.50
2022-10-13T03:49:00.450Z,9.20
2022-10-13T03:51:29.255Z,9.82
2022-10-13T03:53:55.646Z,8.93
2022-10-13T03:56:23.188Z,9.07
2022-10-13T03:58:54.657Z,9.65
2022-10-13T04:01:22.328Z,9.07
2022-10-13T04:03:49.579Z,9.30
2022-10-13T04:06:16.456Z,9.23
2022-10-13T04:08:43.351Z,9.57
2022-10-13T04:11:11.435Z,9.27
2022-10-13T04:13:40.213Z,9.77
2022-10-13T04:16:08.700Z,8.70
2022-10-13T04:18:35.676Z,8.52
2022-10-13T04:21:02.072Z,9.35
2022-10-13T04:23:28.574Z,8.77
2022-10-13T04:25:56.441Z,10.13
2022-10-13T04:28:22.928Z,9.43
2022-10-13T04:30:49.807Z,9.93
2022-10-13T04:33:16.485Z,8.70
2022-10-13T04:35:42.938Z,9.40
2022-10-13T04:38:09.301Z,8.48
2022-10-13T04:40:36.061Z,8.82
2022-10-13T04:43:02.466Z,9.57
2022-10-13T04:45:28.959Z,9.57
2022-10-13T04:47:55.359Z,10.20
2022-10-13T04:50:23.237Z,8.68
2022-10-13T04:52:58.585Z,8.55
2022-10-13T04:55:25.016Z,9.20
2022-10-13T04:57:51.596Z,9.20
2022-10-13T05:00:18.516Z,9.32
2022-10-13T05:02:44.923Z,9.45
2022-10-13T05:05:11.665Z,9.88
2022-10-13T05:07:38.043Z,9.43
2022-10-13T05:10:04.552Z,10.05
2022-10-13T05:12:31.099Z,9.90
2022-10-13T05:14:58.836Z,9.40
2022-10-13T05:17:25.252Z,8.65
2022-10-13T05:19:51.992Z,9.18
2022-10-13T05:22:18.762Z,8.20
2022-10-13T05:24:46.966Z,8.50
2022-10-13T05:27:13.797Z,9.00
2022-10-13T05:29:40.513Z,9.85
2022-10-13T05:32:07.771Z,8.45
2022-10-13T05:34:34.313Z,8.68
2022-10-13T05:37:00.784Z,9.27
2022-10-13T05:39:27.229Z,8.45
2022-10-13T05:41:53.814Z,8.98
2022-10-13T05:44:20.841Z,10.50
2022-10-13T05:46:53.148Z,8.95
2022-10-13T05:49:19.587Z,8.35
2022-10-13T05:51:47.455Z,8.70
2022-10-13T05:54:17.186Z,8.15
2022-10-13T05:56:46.972Z,7.78
2022-10-13T05:59:15.651Z,8.15
2022-10-13T06:01:46.769Z,8.25
2022-10-13T06:04:15.144Z,7.53
2022-10-13T06:06:42.694Z,8.90
2022-10-13T06:09:09.071Z,9.02
2022-10-13T06:11:35.427Z,7.20
2022-10-13T06:14:01.809Z,8.13
2022-10-13T06:16:28.231Z,7.20
2022-10-13T06:18:54.731Z,7.78
2022-10-13T06:21:21.736Z,7.75
2022-10-13T06:23:48.149Z,7.40
2022-10-13T06:26:16.317Z,8.23
2022-10-13T06:28:46.320Z,7.38
2022-10-13T06:31:17.192Z,8.38
2022-10-13T06:33:44.145Z,8.32
2022-10-13T06:36:10.876Z,9.70
2022-10-13T06:38:37.233Z,7.57
2022-10-13T06:41:04.486Z,8.10
2022-10-13T06:43:39.676Z,8.68
2022-10-13T06:46:10.115Z,8.27
2022-10-13T06:48:36.845Z,7.72
2022-10-13T06:51:04.566Z,7.15
2022-10-13T06:53:31.612Z,7.63
2022-10-13T06:55:59.234Z,8.02
2022-10-13T06:58:26.092Z,7.53
2022-10-13T07:00:53.199Z,8.77
2022-10-13T07:03:19.960Z,7.65
2022-10-13T07:05:46.371Z,7.38
2022-10-13T07:08:13.395Z,8.38
2022-10-13T07:10:40.629Z,8.63
2022-10-13T07:13:07.076Z,8.07
2022-10-13T07:15:34.241Z,8.35
2022-10-13T07:18:00.731Z,8.23
2022-10-13T07:20:29.269Z,8.40
2022-10-13T07:22:56.070Z,8.52
2022-10-13T07:25:24.689Z,8.23
2022-10-13T07:27:51.329Z,9.32
2022-10-13T07:30:18.527Z,8.65
2022-10-13T07:32:47.675Z,8.80
2022-10-13T07:35:14.341Z,9.05
2022-10-13T07:37:40.738Z,8.45
2022-10-13T07:40:07.750Z,8.82
2022-10-13T07:42:34.387Z,11.25
2022-10-13T07:45:00.765Z,7.90
2022-10-13T07:47:28.813Z,8.73
2022-10-13T07:49:55.763Z,8.98
2022-10-13T07:52:22.515Z,12.95
2022-10-13T07:54:49.955Z,11.68
2022-10-13T07:57:16.442Z,9.57
2022-10-13T07:59:42.850Z,9.48
2022-10-13T08:02:12.728Z,11.05
2022-10-13T08:04:39.162Z,9.02
2022-10-13T08:07:06.513Z,10.02
2022-10-13T08:09:33.431Z,10.35
2022-10-13T08:12:00.846Z,10.52
2022-10-13T08:14:29.043Z,10.20
2022-10-13T08:16:55.772Z,9.85
2022-10-13T08:19:22.716Z,11.40
2022-10-13T08:21:58.860Z,11.18
2022-10-13T08:24:26.741Z,11.93
2022-10-13T08:26:53.412Z,11.77
2022-10-13T08:29:22.321Z,11.27
2022-10-13T08:31:50.575Z,11.98
2022-10-13T08:34:17.227Z,12.00
2022-10-13T08:36:45.020Z,12.23
2022-10-13T08:39:11.587Z,11.45
2022-10-13T08:41:39.216Z,11.82
2022-10-13T08:47:19.083Z,11.73
2022-10-13T08:49:46.271Z,12.70
2022-10-13T08:52:21.616Z,11.80
2022-10-13T08:54:48.855Z,13.57
2022-10-13T08:57:15.501Z,13.20
2022-10-13T08:59:42.258Z,13.13
2022-10-13T09:02:16.152Z,12.95
2022-10-13T09:07:08.851Z,13.07
2022-10-13T09:09:36.065Z,12.88
2022-10-13T09:12:03.415Z,14.07
2022-10-13T09:14:32.867Z,13.13
2022-10-13T09:17:20.562Z,12.77
2022-10-13T09:19:57.881Z,12.85
2022-10-13T09:22:32.407Z,13.10
2022-10-13T09:25:08.286Z,13.48
2022-10-13T09:27:49.991Z,12.82
2022-10-13T09:30:25.444Z,13.10
2022-10-13T09:32:59.064Z,13.88
2022-10-13T09:35:25.617Z,12.98
2022-10-13T09:38:04.072Z,13.10
2022-10-13T09:40:33.620Z,13.40
2022-10-13T09:43:01.168Z,12.25
2022-10-13T09:45:30.327Z,13.88
2022-10-13T09:48:03.265Z,12.85
2022-10-13T09:50:30.847Z,12.80
2022-10-13T09:53:35.741Z,12.30
2022-10-13T09:56:08.083Z,13.07
2022-10-13T09:58:37.040Z,12.95
2022-10-13T10:01:04.176Z,12.38
2022-10-13T10:03:35.650Z,13.30
2022-10-13T10:06:12.181Z,11.70
2022-10-13T10:09:02.268Z,12.70
2022-10-13T10:11:33.080Z,11.88
2022-10-13T10:14:02.416Z,13.75
2022-10-13T10:16:38.597Z,15.45
2022-10-13T10:19:04.973Z,14.35
2022-10-13T10:21:35.470Z,15.30
2022-10-13T10:24:25.242Z,14.20
2022-10-13T10:26:59.422Z,15.60
2022-10-13T10:29:48.112Z,13.40
2022-10-13T10:32:14.477Z,13.70
2022-10-13T10:34:50.554Z,12.77
2022-10-13T10:37:35.777Z,12.70
2022-10-13T10:40:06.336Z,12.15
2022-10-13T10:42:52.770Z,11.02
2022-10-13T10:45:22.433Z,11.77
2022-10-13T10:47:51.480Z,11.50
2022-10-13T10:50:20.382Z,11.30
2022-10-13T10:53:00.400Z,11.57
2022-10-13T10:55:42.475Z,10.68
2022-10-13T10:58:21.717Z,11.23
2022-10-13T11:01:08.483Z,11.30
2022-10-13T11:03:42.232Z,12.23
2022-10-13T11:06:17.773Z,11.48
2022-10-13T11:08:46.771Z,11.15
2022-10-13T11:11:24.798Z,11.63
2022-10-13T11:13:59.429Z,10.93
2022-10-13T11:16:25.776Z,11.40
2022-10-13T11:18:54.921Z,9.35
2022-10-13T11:21:24.451Z,11.00
2022-10-13T11:23:50.830Z,9.48
2022-10-13T11:26:28.007Z,10.80
2022-10-13T11:28:54.446Z,11.57
2022-10-13T11:31:25.723Z,10.05
2022-10-13T11:33:54.408Z,11.00
2022-10-13T11:36:39.794Z,9.88
2022-10-13T11:39:25.990Z,10.50
2022-10-13T11:42:11.268Z,11.68
2022-10-13T11:44:50.937Z,12.57
2022-10-13T11:47:36.261Z,11.45
2022-10-13T11:50:18.748Z,12.10
2022-10-13T11:52:57.426Z,10.75
2022-10-13T11:55:32.088Z,10.68
2022-10-13T11:58:08.800Z,11.43
2022-10-13T12:00:35.305Z,11.75
2022-10-13T12:03:01.758Z,11.98
2022-10-13T12:05:29.475Z,13.52
2022-10-13T12:07:58.661Z,13.77
2022-10-13T12:10:36.287Z,12.43
2022-10-13T12:13:05.555Z,11.90
2022-10-13T12:15:33.943Z,11.75
2022-10-13T12:18:00.824Z,12.20
2022-10-13T12:20:30.705Z,14.25
2022-10-13T12:22:57.432Z,13.20
2022-10-13T12:25:28.802Z,12.60
2022-10-13T12:30:23.868Z,11.93
2022-10-13T12:32:51.464Z,11.77
2022-10-13T12:35:25.447Z,12.00
2022-10-13T12:37:52.691Z,11.30
2022-10-13T12:40:19.529Z,10.75
2022-10-13T12:42:46.510Z,11.10
2022-10-13T12:45:21.100Z,11.60
2022-10-13T12:47:54.091Z,12.70
2022-10-13T12:50:32.811Z,11.90
2022-10-13T12:53:08.318Z,11.40
2022-10-13T12:55:35.636Z,12.05
2022-10-13T12:58:02.295Z,11.55
2022-10-13T13:00:29.723Z,11.45
2022-10-13T13:03:03.842Z,11.00
2022-10-13T13:05:39.242Z,13.07
2022-10-13T13:08:25.150Z,13.05
2022-10-13T13:10:58.472Z,12.40
2022-10-13T13:13:25.225Z,12.30
2022-10-13T13:15:51.747Z,12.32
2022-10-13T13:18:27.144Z,13.50
2022-10-13T13:20:54.470Z,13.35
2022-10-13T13:23:22.068Z,13.07
2022-10-13T13:25:59.243Z,13.20
2022-10-13T13:28:28.839Z,12.70
2022-10-13T13:30:55.274Z,13.10
2022-10-13T13:33:21.696Z,13.00
2022-10-13T13:35:49.843Z,13.65
2022-10-13T13:38:16.428Z,13.25
2022-10-13T13:40:42.821Z,12.50
2022-10-13T13:43:11.951Z,13.20
2022-10-13T13:45:38.534Z,12.00
2022-10-13T13:48:06.861Z,12.35
2022-10-13T13:50:36.572Z,12.80
2022-10-13T13:53:03.549Z,12.40
2022-10-13T13:55:30.186Z,12.75
2022-10-13T13:57:56.876Z,13.68
2022-10-13T14:00:23.379Z,12.48
2022-10-13T14:02:54.375Z,12.27
2022-10-13T14:05:20.765Z,12.25
2022-10-13T14:07:47.132Z,12.60
2022-10-13T14:10:13.823Z,12.25
2022-10-13T14:12:40.671Z,13.32
2022-10-13T14:15:07.343Z,13.15
2022-10-13T14:17:33.771Z,12.45
2022-10-13T14:20:00.382Z,11.77
2022-10-13T14:22:27.065Z,11.68
2022-10-13T14:24:53.649Z,12.20
2022-10-13T14:27:20.465Z,11.63
2022-10-13T14:29:47.155Z,12.55
2022-10-13T14:32:15.379Z,11.88
2022-10-13T14:34:41.821Z,12.88
2022-10-13T14:37:08.287Z,12.60
2022-10-13T14:39:34.657Z,12.48
2022-10-13T14:42:01.083Z,12.90
2022-10-13T14:44:27.577Z,12.13
2022-10-13T14:46:54.008Z,12.57
2022-10-13T14:49:20.360Z,12.30
2022-10-13T14:51:47.814Z,12.68
2022-10-13T14:54:15.780Z,12.02
2022-10-13T14:56:42.187Z,13.13
2022-10-13T14:59:09.851Z,13.20
2022-10-13T15:01:38.176Z,12.68
2022-10-13T15:04:04.866Z,13.80
2022-10-13T15:06:32.146Z,14.57
2022-10-13T15:08:58.906Z,14.52
2022-10-13T15:11:26.155Z,11.82
2022-10-13T15:13:52.570Z,12.25
2022-10-13T15:16:23.148Z,11.82
2022-10-13T15:18:49.897Z,12.13
2022-10-13T15:21:16.665Z,11.85
2022-10-13T15:23:43.517Z,13.38
2022-10-13T15:26:10.954Z,12.95
2022-10-13T15:28:41.908Z,13.15
2022-10-13T15:31:10.425Z,12.63
2022-10-13T15:33:37.178Z,13.02
2022-10-13T15:36:03.758Z,12.50
2022-10-13T15:38:31.145Z,14.23
2022-10-13T15:41:00.620Z,13.30
2022-10-13T15:43:27.129Z,13.57
2022-10-13T15:45:54.827Z,12.90
2022-10-13T15:48:21.562Z,14.20
2022-10-13T15:50:47.971Z,13.18
2022-10-13T15:53:14.689Z,14.48
2022-10-13T15:55:41.084Z,16.30
2022-10-13T15:58:11.375Z,14.35
2022-10-13T16:00:40.622Z,14.02
2022-10-13T16:03:07.025Z,14.20
2022-10-13T16:05:33.453Z,13.88
2022-10-13T16:07:59.851Z,14.77
2022-10-13T16:10:26.263Z,15.60
2022-10-13T16:12:52.734Z,16.40
2022-10-13T16:15:20.025Z,14.95
2022-10-13T16:17:46.583Z,15.57
2022-10-13T16:20:13.325Z,15.18
2022-10-13T16:22:39.903Z,14.95
2022-10-13T16:25:07.447Z,14.18
2022-10-13T16:27:33.852Z,12.98
2022-10-13T16:30:00.367Z,14.18
2022-10-13T16:32:26.827Z,14.95
2022-10-13T16:34:53.439Z,13.98
2022-10-13T16:37:20.346Z,14.05
2022-10-13T16:39:51.398Z,14.25
2022-10-13T16:42:18.435Z,15.48
2022-10-13T16:44:45.041Z,14.90
2022-10-13T16:47:17.357Z,15.10
2022-10-13T16:49:44.824Z,16.48
2022-10-13T16:52:12.251Z,18.10
2022-10-13T16:54:38.680Z,16.05
2022-10-13T16:57:05.243Z,15.82
2022-10-13T16:59:31.733Z,14.63
2022-10-13T17:01:59.250Z,14.98
2022-10-13T17:04:25.744Z,14.73
2022-10-13T17:06:52.251Z,14.85
2022-10-13T17:09:18.725Z,14.52
2022-10-13T17:11:45.115Z,16.17
2022-10-13T17:14:11.652Z,14.88
2022-10-13T17:16:38.107Z,16.88
2022-10-13T17:19:04.553Z,16.00
2022-10-13T17:21:35.442Z,14.77
2022-10-13T17:24:03.938Z,15.38
2022-10-13T17:26:31.508Z,15.65
2022-10-13T17:28:57.945Z,15.15
2022-10-13T17:31:24.732Z,15.98
2022-10-13T17:33:51.693Z,16.50
2022-10-13T17:36:25.895Z,15.45
2022-10-13T17:38:53.252Z,15.80
2022-10-13T17:41:19.989Z,16.02
2022-10-13T17:43:50.723Z,16.83
2022-10-13T17:49:06.091Z,17.00
2022-10-13T17:51:32.474Z,17.52
2022-10-13T17:53:59.330Z,24.88
2022-10-13T17:56:25.747Z,17.98
2022-10-13T17:58:52.670Z,17.38
2022-10-13T18:01:20.957Z,16.80
2022-10-13T18:03:51.644Z,15.25
2022-10-13T18:06:18.323Z,15.93
2022-10-13T18:08:44.789Z,19.38
2022-10-13T18:11:12.655Z,17.48
2022-10-13T18:13:39.092Z,19.25
2022-10-13T18:16:05.615Z,15.80
2022-10-13T18:18:31.998Z,16.35
2022-10-13T18:21:00.650Z,14.80
2022-10-13T18:23:29.294Z,15.40
2022-10-13T18:26:02.666Z,18.70
2022-10-13T18:28:31.173Z,17.25
2022-10-13T18:31:03.900Z,16.23
2022-10-13T18:33:30.385Z,17.52
2022-10-13T18:35:56.916Z,17.00
2022-10-13T18:38:23.932Z,17.38
2022-10-13T18:40:50.367Z,15.40
2022-10-13T18:43:16.782Z,13.88
2022-10-13T18:45:43.144Z,15.20
2022-10-13T18:48:09.548Z,14.57
2022-10-13T18:50:36.364Z,15.02
2022-10-13T18:53:02.721Z,16.50
2022-10-13T18:55:29.482Z,15.60
2022-10-13T18:57:55.931Z,15.27
2022-10-13T19:00:23.652Z,15.55
2022-10-13T19:02:53.418Z,13.40
2022-10-13T19:05:20.879Z,13.85
2022-10-13T19:07:47.540Z,13.27
2022-10-13T19:10:21.584Z,14.65
2022-10-13T19:12:48.089Z,15.05
2022-10-13T19:15:14.580Z,13.70
2022-10-13T19:17:40.981Z,14.10
2022-10-13T19:20:08.076Z,20.38
2022-10-13T19:22:34.464Z,12.60
2022-10-13T19:25:00.947Z,12.02
2022-10-13T19:27:27.750Z,11.32
2022-10-13T19:29:54.773Z,12.60
2022-10-13T19:32:21.162Z,11.38
2022-10-13T19:34:47.646Z,10.88
2022-10-13T19:37:16.322Z,10.25
2022-10-13T19:39:42.879Z,10.30
2022-10-13T19:42:09.436Z,11.05
2022-10-13T19:44:35.806Z,9.88
2022-10-13T19:47:02.191Z,10.65
2022-10-13T19:49:28.560Z,10.93
2022-10-13T19:51:55.541Z,10.70
2022-10-13T19:54:22.050Z,10.60
2022-10-13T19:56:49.189Z,11.75
2022-10-13T19:59:17.380Z,10.35
2022-10-13T20:01:43.808Z,11.50
2022-10-13T20:04:14.120Z,10.77
2022-10-13T20:06:43.375Z,11.50
2022-10-13T20:09:09.848Z,11.48
2022-10-13T20:11:36.300Z,11.60
2022-10-13T20:14:02.674Z,12.35
2022-10-13T20:16:29.239Z,11.40
2022-10-13T20:18:57.953Z,12.15
2022-10-13T20:21:24.799Z,11.95
2022-10-13T20:23:51.595Z,12.35
2022-10-13T20:26:18.585Z,12.38
2022-10-13T20:28:45.891Z,12.60
2022-10-13T20:31:13.865Z,12.93
2022-10-13T20:33:41.245Z,11.95
2022-10-13T20:36:09.185Z,12.48
2022-10-13T20:38:36.149Z,11.90
2022-10-13T20:41:10.097Z,12.38
2022-10-13T20:43:37.226Z,12.20
2022-10-13T20:46:04.747Z,12.52
2022-10-13T20:48:45.575Z,13.13
2022-10-13T20:51:20.008Z,12.60
2022-10-13T20:53:46.805Z,13.60
2022-10-13T20:56:15.491Z,12.48
2022-10-13T20:58:42.375Z,12.70
2022-10-13T21:01:09.254Z,12.25
2022-10-13T21:03:38.335Z,12.68
2022-10-13T21:06:06.198Z,12.60
2022-10-13T21:08:33.205Z,12.20
2022-10-13T21:11:07.037Z,11.95
2022-10-13T21:16:05.304Z,12.20
2022-10-13T21:18:31.877Z,13.10
2022-10-13T21:21:08.894Z,12.45
2022-10-13T21:23:36.046Z,12.20
2022-10-13T21:26:03.557Z,12.68
2022-10-13T21:28:30.571Z,12.60
2022-10-13T21:31:01.448Z,13.15
2022-10-13T21:33:27.976Z,12.32
2022-10-13T21:35:56.203Z,12.43
2022-10-13T21:38:23.021Z,13.05
2022-10-13T21:40:53.714Z,12.63
2022-10-13T21:43:20.473Z,14.02
2022-10-13T21:45:47.303Z,12.98
2022-10-13T21:48:13.737Z,12.70
2022-10-13T21:50:40.161Z,12.65
2022-10-13T21:53:07.274Z,13.65
2022-10-13T21:55:33.813Z,13.85
2022-10-13T21:58:05.195Z,13.18
2022-10-13T22:00:32.167Z,13.63
2022-10-13T22:02:58.648Z,14.20
2022-10-13T22:05:25.527Z,12.75
2022-10-13T22:07:52.024Z,12.25
2022-10-13T22:10:20.023Z,13.50
2022-10-13T22:12:46.569Z,12.57
2022-10-13T22:15:13.027Z,12.45
2022-10-13T22:17:39.535Z,12.80
2022-10-13T22:20:06.350Z,13.00
2022-10-13T22:22:32.780Z,12.77
2022-10-13T22:24:59.269Z,12.07
2022-10-13T22:27:31.197Z,13.68
2022-10-13T22:29:57.698Z,11.85
2022-10-13T22:32:24.199Z,12.65
2022-10-13T22:34:50.990Z,12.10
2022-10-13T22:37:17.864Z,13.05
2022-10-13T22:39:44.280Z,12.95
2022-10-13T22:42:11.041Z,12.65
2022-10-13T22:44:37.454Z,14.27
2022-10-13T22:47:03.856Z,13.27
2022-10-13T22:49:30.409Z,12.38
2022-10-13T22:51:56.954Z,13.52
2022-10-13T22:54:23.337Z,13.23
2022-10-13T22:56:49.800Z,13.52
2022-10-13T22:59:16.581Z,13.45
2022-10-13T23:01:43.005Z,12.90
2022-10-13T23:04:09.368Z,13.68
2022-10-13T23:06:36.406Z,14.02
2022-10-13T23:09:06.239Z,12.60
2022-10-13T23:11:33.297Z,13.43
2022-10-13T23:14:00.659Z,13.60
2022-10-13T23:16:27.566Z,13.15
2022-10-13T23:18:54.266Z,13.25
2022-10-13T23:21:23.330Z,13.43
2022-10-13T23:23:54.335Z,12.75
2022-10-13T23:26:21.030Z,13.95
2022-10-13T23:28:47.478Z,13.68
2022-10-13T23:31:15.942Z,13.57
2022-10-13T23:33:43.022Z,14.30
2022-10-13T23:36:14.059Z,14.13
2022-10-13T23:38:40.874Z,13.30
2022-10-13T23:41:11.666Z,12.98
2022-10-13T23:43:39.821Z,13.23
2022-10-13T23:46:06.787Z,13.27
2022-10-13T23:48:33.298Z,12.90
2022-10-13T23:51:05.045Z,13.10
2022-10-13T23:53:33.515Z,13.65
2022-10-13T23:56:01.198Z,13.32
2022-10-13T23:58:28.260Z,11.73
